Time;durP1;ratioP1;P1;durP2;ratioP2;P2;SDS_P1;SDS_P2;PMS_P1;PMS_P2;Temp;Humidity;BMP_temperature;BMP_pressure;BME280_temperature;BME280_humidity;BME280_pressure;Samples;Min_cycle;Max_cycle;Signal;HPM_P1;HPM_P2
2022/06/17 00:01:48;;;;;;;9.15;7.03;;;15.40;99.90;;;;;;4941643;29;20602;-79
2022/06/17 00:04:14;;;;;;;10.30;7.80;;;15.30;99.90;;;;;;4959080;29;20081;-80
2022/06/17 00:06:48;;;;;;;9.80;7.55;;;15.30;99.90;;;;;;4941752;29;20033;-80
2022/06/17 00:09:16;;;;;;;12.60;7.55;;;15.30;99.90;;;;;;4941640;29;20469;-79
2022/06/17 00:11:42;;;;;;;9.68;7.45;;;15.30;99.90;;;;;;4958838;29;20028;-80
2022/06/17 00:14:18;;;;;;;10.55;7.45;;;15.30;99.90;;;;;;4941660;29;20031;-80
2022/06/17 00:16:45;;;;;;;10.45;7.57;;;15.30;99.90;;;;;;4959125;29;20115;-79
2022/06/17 00:19:11;;;;;;;10.27;7.65;;;15.30;99.90;;;;;;4941404;29;20502;-79
2022/06/17 00:21:40;;;;;;;9.90;7.38;;;15.20;99.90;;;;;;4941406;29;20031;-79
2022/06/17 00:24:20;;;;;;;9.07;7.40;;;15.20;99.90;;;;;;4958726;29;20041;-79
2022/06/17 00:26:46;;;;;;;9.30;7.82;;;15.20;99.90;;;;;;4958916;29;20062;-79
2022/06/17 00:29:18;;;;;;;8.50;7.65;;;15.20;99.90;;;;;;4958199;29;20106;-79
2022/06/17 00:31:44;;;;;;;11.52;8.18;;;15.20;99.90;;;;;;4958541;29;20082;-80
2022/06/17 00:34:10;;;;;;;8.70;7.65;;;15.10;99.90;;;;;;4958740;29;20412;-80
2022/06/17 00:36:36;;;;;;;12.68;7.90;;;15.10;99.90;;;;;;4958465;29;20034;-79
2022/06/17 00:39:09;;;;;;;9.30;7.88;;;15.10;99.90;;;;;;4958382;29;20059;-79
2022/06/17 00:41:37;;;;;;;8.85;7.55;;;15.10;99.90;;;;;;4941041;29;20037;-79
2022/06/17 00:44:34;;;;;;;10.25;8.00;;;15.10;99.90;;;;;;4958231;29;20071;-79
2022/06/17 00:47:12;;;;;;;8.65;7.85;;;15.10;99.90;;;;;;4958381;29;20379;-79
2022/06/17 00:50:00;;;;;;;8.60;7.55;;;15.10;99.90;;;;;;4958188;29;20143;-79
2022/06/17 00:52:45;;;;;;;9.32;7.45;;;15.10;99.90;;;;;;4958163;29;20031;-80
2022/06/17 00:55:22;;;;;;;8.15;7.32;;;15.00;99.90;;;;;;4957361;28;20023;-80
2022/06/17 00:57:47;;;;;;;9.93;8.55;;;15.00;99.90;;;;;;4958047;29;20035;-80
2022/06/17 01:00:27;;;;;;;12.35;7.60;;;15.00;99.90;;;;;;4957958;29;20054;-80
2022/06/17 01:02:56;;;;;;;9.10;7.88;;;15.00;99.90;;;;;;4957899;29;20352;-80
2022/06/17 01:05:44;;;;;;;8.38;7.60;;;15.00;99.90;;;;;;4958271;29;20110;-80
2022/06/17 01:11:24;;;;;;;10.50;8.05;;;14.90;99.90;;;;;;4872528;29;20082;-81
2022/06/17 01:13:50;;;;;;;8.85;7.63;;;14.90;99.90;;;;;;4957885;29;20427;-81
2022/06/17 01:16:22;;;;;;;9.82;8.15;;;14.90;99.90;;;;;;4957524;29;20062;-81
2022/06/17 01:18:50;;;;;;;10.25;8.45;;;14.90;99.90;;;;;;4957778;29;20028;-81
2022/06/17 01:21:27;;;;;;;8.43;7.53;;;14.90;99.90;;;;;;4957677;29;20039;-81
2022/06/17 01:23:53;;;;;;;8.75;7.55;;;14.90;99.90;;;;;;4957721;29;20028;-81
2022/06/17 01:26:19;;;;;;;11.13;8.60;;;14.90;99.90;;;;;;4940191;29;20448;-81
2022/06/17 01:28:44;;;;;;;12.85;8.02;;;14.90;99.90;;;;;;4957535;29;20065;-81
2022/06/17 01:31:11;;;;;;;9.75;7.95;;;14.90;99.90;;;;;;4957555;29;20416;-81
2022/06/17 01:33:40;;;;;;;9.10;8.20;;;14.80;99.90;;;;;;4949584;29;20046;-81
2022/06/17 01:36:18;;;;;;;9.25;7.60;;;14.80;99.90;;;;;;4957750;29;20034;-81
2022/06/17 01:38:48;;;;;;;10.85;8.45;;;14.80;99.90;;;;;;4957597;29;20023;-81
2022/06/17 01:41:15;;;;;;;10.98;8.57;;;14.80;99.90;;;;;;4957485;29;20123;-81
2022/06/17 01:44:06;;;;;;;11.07;9.23;;;14.80;99.90;;;;;;4957259;29;20035;-82
2022/06/17 01:46:41;;;;;;;9.43;8.45;;;14.80;99.90;;;;;;4957342;29;20031;-81
2022/06/17 01:49:17;;;;;;;10.20;9.05;;;14.90;99.90;;;;;;4940111;29;20468;-81
2022/06/17 01:51:59;;;;;;;12.68;8.20;;;14.90;99.90;;;;;;4957418;29;20066;-81
2022/06/17 01:54:33;;;;;;;10.30;9.15;;;14.90;99.90;;;;;;4957356;29;20133;-82
2022/06/17 01:57:02;;;;;;;11.15;8.60;;;14.90;99.90;;;;;;4957614;29;20159;-82
2022/06/17 01:59:36;;;;;;;11.20;8.93;;;14.90;99.90;;;;;;4957292;29;20031;-82
2022/06/17 02:02:04;;;;;;;8.85;7.95;;;14.90;99.90;;;;;;4957423;29;20105;-82
2022/06/17 02:04:34;;;;;;;10.48;9.35;;;14.90;99.90;;;;;;4940441;29;20037;-83
2022/06/17 02:07:44;;;;;;;11.30;8.10;;;14.90;99.90;;;;;;4957317;28;20114;-82
2022/06/17 02:10:10;;;;;;;9.93;8.55;;;14.90;99.90;;;;;;4936034;29;20035;-81
2022/06/17 02:12:37;;;;;;;9.85;8.85;;;14.90;99.90;;;;;;4957436;29;20034;-82
2022/06/17 02:15:03;;;;;;;11.80;8.40;;;14.90;99.90;;;;;;4957146;29;20031;-83
2022/06/17 02:17:35;;;;;;;13.40;8.95;;;14.90;99.90;;;;;;4957233;29;20038;-83
2022/06/17 02:20:01;;;;;;;9.15;8.27;;;14.90;99.90;;;;;;4940069;29;20034;-82
2022/06/17 02:22:30;;;;;;;11.18;9.55;;;14.90;99.90;;;;;;4957167;29;20114;-83
2022/06/17 02:25:00;;;;;;;10.18;9.10;;;14.90;99.90;;;;;;4956894;29;20035;-82
2022/06/17 02:27:27;;;;;;;12.32;9.80;;;14.90;99.90;;;;;;4940028;29;20031;-83
2022/06/17 02:29:54;;;;;;;11.75;9.52;;;15.00;99.90;;;;;;4957000;29;20090;-83
2022/06/17 02:32:20;;;;;;;10.63;8.85;;;14.90;99.90;;;;;;4939690;29;20431;-83
2022/06/17 02:35:22;;;;;;;12.60;10.00;;;14.90;99.90;;;;;;4957223;29;20459;-84
2022/06/17 02:37:52;;;;;;;12.95;9.73;;;14.90;99.90;;;;;;4957066;29;20413;-84
2022/06/17 02:40:23;;;;;;;11.73;9.48;;;14.90;99.90;;;;;;4939842;29;20031;-83
2022/06/17 02:42:49;;;;;;;12.43;9.93;;;14.90;99.90;;;;;;4956987;29;20042;-84
2022/06/17 02:45:19;;;;;;;10.75;9.02;;;14.90;99.90;;;;;;4939724;29;20054;-83
2022/06/17 02:47:45;;;;;;;13.13;10.63;;;14.90;99.90;;;;;;4939725;29;20024;-83
2022/06/17 02:50:17;;;;;;;14.68;9.45;;;14.90;99.90;;;;;;4956707;29;20054;-83
2022/06/17 02:52:44;;;;;;;11.60;9.52;;;14.90;99.90;;;;;;4929496;29;20028;-83
2022/06/17 02:55:19;;;;;;;10.43;9.30;;;14.90;99.90;;;;;;4953282;29;20456;-83
2022/06/17 02:57:47;;;;;;;12.57;9.27;;;14.90;99.90;;;;;;4939462;29;20028;-84
2022/06/17 03:00:21;;;;;;;11.73;9.90;;;14.90;99.90;;;;;;4956600;29;20035;-84
2022/06/17 03:02:54;;;;;;;10.75;9.23;;;15.00;99.90;;;;;;4939780;29;20400;-85
2022/06/17 03:05:32;;;;;;;11.88;10.07;;;15.00;99.90;;;;;;4939554;29;20089;-85
2022/06/17 03:07:59;;;;;;;12.20;9.63;;;15.00;99.90;;;;;;4957068;29;20030;-84
2022/06/17 03:10:33;;;;;;;10.70;9.50;;;15.00;99.90;;;;;;4956741;29;20380;-84
2022/06/17 03:13:12;;;;;;;12.13;9.68;;;15.00;99.90;;;;;;4939826;29;20031;-84
2022/06/17 03:15:40;;;;;;;10.45;9.27;;;15.00;99.90;;;;;;4939886;29;20031;-85
2022/06/17 03:18:06;;;;;;;11.52;9.63;;;15.00;99.90;;;;;;4959500;28;20081;-84
2022/06/17 03:20:34;;;;;;;13.13;9.70;;;15.10;99.90;;;;;;4962906;29;20055;-84
2022/06/17 03:23:24;;;;;;;15.88;9.35;;;15.10;99.90;;;;;;4945788;29;20130;-84
2022/06/17 03:26:11;;;;;;;11.55;9.60;;;15.00;99.90;;;;;;4962487;29;20057;-86
2022/06/17 03:28:43;;;;;;;11.50;9.60;;;15.00;99.90;;;;;;4962857;29;20046;-85
2022/06/17 03:31:24;;;;;;;11.18;9.50;;;15.10;99.90;;;;;;4962889;28;20042;-86
2022/06/17 03:33:56;;;;;;;10.48;8.95;;;15.00;99.90;;;;;;4962775;29;20063;-85
2022/06/17 03:36:32;;;;;;;10.52;9.40;;;15.00;99.90;;;;;;4962722;28;20035;-84
2022/06/17 03:39:02;;;;;;;10.32;9.25;;;15.10;99.90;;;;;;4962719;28;20027;-84
2022/06/17 03:41:36;;;;;;;10.25;8.75;;;15.00;99.90;;;;;;4962701;28;20066;-84
2022/06/17 03:44:07;;;;;;;14.38;9.40;;;15.10;99.90;;;;;;4962723;29;20028;-84
2022/06/17 03:46:43;;;;;;;12.18;9.45;;;15.10;99.90;;;;;;4945660;29;20023;-85
2022/06/17 03:49:23;;;;;;;10.30;9.05;;;15.00;99.90;;;;;;4962720;28;20023;-85
2022/06/17 03:51:53;;;;;;;10.70;9.70;;;15.10;99.90;;;;;;4962932;28;20059;-86
2022/06/17 03:54:19;;;;;;;11.13;9.18;;;15.10;99.90;;;;;;4962207;29;20078;-86
2022/06/17 03:56:49;;;;;;;13.85;9.77;;;15.10;99.90;;;;;;4962378;29;20384;-87
2022/06/17 03:59:18;;;;;;;14.52;9.82;;;15.10;99.90;;;;;;4962613;28;20023;-87
2022/06/17 04:01:48;;;;;;;12.82;8.80;;;15.10;99.90;;;;;;4945488;29;20065;-89
2022/06/17 04:04:22;;;;;;;12.18;8.48;;;15.10;99.90;;;;;;4945534;29;20035;-87
2022/06/17 04:06:51;;;;;;;10.75;9.65;;;15.10;99.90;;;;;;4945687;29;20069;-86
2022/06/17 04:09:24;;;;;;;9.60;8.60;;;15.10;99.90;;;;;;4962455;28;20024;-85
2022/06/17 04:11:54;;;;;;;10.27;9.13;;;15.10;99.90;;;;;;4945803;29;20073;-86
2022/06/17 04:14:45;;;;;;;12.45;10.07;;;15.10;99.90;;;;;;4945763;29;20062;-84
2022/06/17 04:17:21;;;;;;;14.45;9.68;;;15.10;99.90;;;;;;4962528;28;20024;-87
2022/06/17 04:19:53;;;;;;;13.98;9.18;;;15.10;99.90;;;;;;4962810;28;20038;-88
2022/06/17 04:22:25;;;;;;;11.70;9.63;;;15.10;99.90;;;;;;4962525;28;20027;-86
2022/06/17 04:25:00;;;;;;;11.43;9.13;;;15.10;99.90;;;;;;4962586;28;20028;-87
2022/06/17 04:27:56;;;;;;;11.27;9.05;;;15.10;99.90;;;;;;4945559;29;20051;-87
2022/06/17 04:30:19;;;;;;;11.90;9.75;;;15.10;99.90;;;;;;4958425;28;20027;-86
2022/06/17 04:32:47;;;;;;;12.80;10.32;;;15.20;99.90;;;;;;4959214;29;20038;-88
2022/06/17 04:35:13;;;;;;;12.55;9.20;;;15.30;99.90;;;;;;4959106;29;20073;-83
2022/06/17 04:37:40;;;;;;;9.75;8.75;;;15.30;99.90;;;;;;4958695;29;20039;-85
2022/06/17 04:40:19;;;;;;;11.85;8.45;;;15.50;99.90;;;;;;4958737;29;20027;-82
2022/06/17 04:42:46;;;;;;;10.88;8.57;;;15.60;99.90;;;;;;4958941;29;20038;-84
2022/06/17 04:45:21;;;;;;;10.25;9.18;;;15.70;99.90;;;;;;4941528;29;20039;-82
2022/06/17 04:47:47;;;;;;;10.60;8.32;;;15.80;99.90;;;;;;4941477;29;20023;-83
2022/06/17 04:50:16;;;;;;;10.95;9.13;;;15.80;99.90;;;;;;4958480;29;20478;-83
2022/06/17 04:52:48;;;;;;;11.07;8.40;;;15.90;99.90;;;;;;4958449;29;20023;-83
2022/06/17 04:55:24;;;;;;;8.63;7.60;;;16.00;99.90;;;;;;4941830;29;20054;-83
2022/06/17 04:57:50;;;;;;;10.07;7.47;;;16.10;99.90;;;;;;4958755;29;20035;-84
2022/06/17 05:00:24;;;;;;;10.70;7.90;;;16.20;99.90;;;;;;4958474;29;20035;-82
2022/06/17 05:02:51;;;;;;;7.45;6.38;;;16.30;99.90;;;;;;4958315;29;20075;-82
2022/06/17 05:05:27;;;;;;;8.98;7.40;;;16.50;99.90;;;;;;4941238;29;20030;-83
2022/06/17 05:07:53;;;;;;;7.32;6.47;;;16.60;99.90;;;;;;4958141;29;20059;-82
2022/06/17 05:10:24;;;;;;;6.85;5.80;;;16.60;99.90;;;;;;4958048;29;20091;-82
2022/06/17 05:13:02;;;;;;;10.60;5.95;;;16.70;99.90;;;;;;4941435;29;20031;-82
2022/06/17 05:15:29;;;;;;;8.05;5.68;;;16.80;99.90;;;;;;4957847;29;20042;-82
2022/06/17 05:17:56;;;;;;;8.80;5.97;;;16.90;99.90;;;;;;4958154;29;20019;-84
2022/06/17 05:20:23;;;;;;;7.18;5.88;;;16.90;99.90;;;;;;4958325;29;20023;-84
2022/06/17 05:22:54;;;;;;;7.68;5.70;;;17.00;99.90;;;;;;4958248;29;20035;-86
2022/06/17 05:25:22;;;;;;;6.80;5.45;;;17.00;99.90;;;;;;4958210;29;20062;-87
2022/06/17 05:27:47;;;;;;;6.80;5.13;;;17.10;99.90;;;;;;4958197;29;20031;-88
2022/06/17 05:30:13;;;;;;;10.35;6.72;;;17.10;99.90;;;;;;4941139;29;20379;-84
2022/06/17 05:32:43;;;;;;;9.18;5.13;;;17.30;99.90;;;;;;4957535;29;20498;-60
2022/06/17 05:35:09;;;;;;;6.93;4.70;;;17.40;99.90;;;;;;4957345;29;20077;-60
2022/06/17 05:37:35;;;;;;;8.32;5.15;;;17.50;99.90;;;;;;4957199;29;20039;-60
2022/06/17 05:40:01;;;;;;;8.13;5.38;;;17.60;99.90;;;;;;4956866;28;20035;-60
2022/06/17 05:42:27;;;;;;;5.35;4.85;;;17.70;99.90;;;;;;4956914;29;20035;-67
2022/06/17 05:44:53;;;;;;;6.13;5.07;;;17.80;99.90;;;;;;4956838;29;20055;-75
2022/06/17 05:47:18;;;;;;;5.22;4.53;;;17.80;99.90;;;;;;4957031;29;20379;-75
2022/06/17 05:49:44;;;;;;;5.72;4.85;;;17.90;99.90;;;;;;4956946;29;20483;-76
2022/06/17 05:52:11;;;;;;;6.18;4.50;;;17.90;99.90;;;;;;4956829;29;20471;-79
2022/06/17 05:54:36;;;;;;;7.20;4.50;;;17.90;99.90;;;;;;4956911;29;20061;-79
2022/06/17 05:57:03;;;;;;;6.03;5.03;;;17.90;99.90;;;;;;4956795;29;20063;-77
2022/06/17 05:59:28;;;;;;;8.75;4.68;;;18.00;99.90;;;;;;4956941;29;20031;-76
2022/06/17 06:01:54;;;;;;;7.43;4.80;;;18.00;99.90;;;;;;4956709;29;20554;-76
2022/06/17 06:04:20;;;;;;;9.05;4.68;;;18.00;99.90;;;;;;4956630;29;20036;-76
2022/06/17 06:06:46;;;;;;;7.68;5.15;;;18.10;99.90;;;;;;4939492;29;20382;-76
2022/06/17 06:09:11;;;;;;;5.53;4.60;;;18.10;99.90;;;;;;4956838;29;20054;-75
2022/06/17 06:11:37;;;;;;;5.75;4.78;;;18.20;99.90;;;;;;4948407;29;20039;-74
2022/06/17 06:14:03;;;;;;;10.25;4.63;;;18.20;99.90;;;;;;4939484;29;20031;-75
2022/06/17 06:16:30;;;;;;;4.97;3.85;;;18.30;99.90;;;;;;4956268;29;20027;-72
2022/06/17 06:18:56;;;;;;;5.35;4.35;;;18.50;99.90;;;;;;4956376;29;20027;-73
2022/06/17 06:21:22;;;;;;;4.53;4.10;;;18.70;99.90;;;;;;4939142;29;20130;-73
2022/06/17 06:23:47;;;;;;;11.23;4.38;;;19.00;99.90;;;;;;4939065;29;20118;-73
2022/06/17 06:26:18;;;;;;;5.15;4.00;;;19.20;99.90;;;;;;4955850;29;20054;-73
2022/06/17 06:28:44;;;;;;;4.82;4.15;;;19.50;99.90;;;;;;4939169;29;20108;-71
2022/06/17 06:31:35;;;;;;;8.85;5.15;;;19.90;99.90;;;;;;4956267;29;20031;-70
2022/06/17 06:34:00;;;;;;;4.65;3.60;;;20.10;99.90;;;;;;4956371;29;20038;-70
2022/06/17 06:36:26;;;;;;;5.13;3.42;;;20.30;99.90;;;;;;4938993;29;20027;-70
2022/06/17 06:38:52;;;;;;;5.32;3.55;;;20.50;99.90;;;;;;4938819;29;20031;-70
2022/06/17 06:41:20;;;;;;;6.90;3.65;;;20.60;99.90;;;;;;4955909;29;20027;-70
2022/06/17 06:43:46;;;;;;;4.50;3.97;;;20.60;99.90;;;;;;4939208;29;20154;-70
2022/06/17 06:46:14;;;;;;;5.72;3.70;;;20.70;99.90;;;;;;4938800;29;20038;-69
2022/06/17 06:48:41;;;;;;;4.28;3.45;;;20.70;99.90;;;;;;4948449;29;20130;-71
2022/06/17 06:51:07;;;;;;;4.93;3.33;;;20.90;99.90;;;;;;4955867;29;20106;-71
2022/06/17 06:53:32;;;;;;;8.25;3.17;;;21.00;99.90;;;;;;4955174;28;20186;-71
2022/06/17 06:55:58;;;;;;;7.05;3.50;;;21.30;99.90;;;;;;4955840;29;20058;-71
2022/06/17 06:58:25;;;;;;;6.07;3.38;;;21.70;99.90;;;;;;4955818;29;20059;-72
2022/06/17 07:00:56;;;;;;;4.30;3.22;;;22.10;99.90;;;;;;4938744;29;20027;-71
2022/06/17 07:03:23;;;;;;;5.82;3.30;;;22.30;99.90;;;;;;4955756;29;20043;-71
2022/06/17 07:05:55;;;;;;;3.75;3.33;;;22.40;99.90;;;;;;4955774;29;20054;-72
2022/06/17 07:08:24;;;;;;;3.40;3.10;;;22.50;99.90;;;;;;4955710;29;20129;-71
2022/06/17 07:10:54;;;;;;;3.30;3.00;;;22.20;99.90;;;;;;4955405;29;20379;-72
2022/06/17 07:13:21;;;;;;;5.32;3.28;;;22.20;99.90;;;;;;4955616;29;20028;-70
2022/06/17 07:15:47;;;;;;;5.97;3.42;;;22.30;99.90;;;;;;4955590;29;20046;-71
2022/06/17 07:18:15;;;;;;;3.10;2.80;;;22.20;99.90;;;;;;4955977;29;20034;-72
2022/06/17 07:20:43;;;;;;;4.85;3.20;;;22.40;99.90;;;;;;4955544;29;20034;-71
2022/06/17 07:23:19;;;;;;;7.05;3.50;;;22.40;99.90;;;;;;4938259;29;20499;-72
2022/06/17 07:25:45;;;;;;;6.10;3.50;;;22.30;99.90;;;;;;4937994;29;20454;-72
2022/06/17 07:28:16;;;;;;;3.22;2.80;;;22.30;99.90;;;;;;4938799;29;20407;-71
2022/06/17 07:30:45;;;;;;;3.35;2.97;;;22.30;99.90;;;;;;4955937;29;20110;-71
2022/06/17 07:33:13;;;;;;;4.80;3.15;;;22.50;99.90;;;;;;4938243;29;20126;-71
2022/06/17 07:35:40;;;;;;;4.25;3.20;;;22.80;99.90;;;;;;4955439;29;20038;-71
2022/06/17 07:40:56;;;;;;;5.43;2.90;;;23.00;99.90;;;;;;4955338;29;20035;-71
2022/06/17 07:43:21;;;;;;;6.68;3.08;;;23.30;99.90;;;;;;4954899;29;20039;-62
2022/06/17 07:45:47;;;;;;;5.63;3.30;;;23.70;99.90;;;;;;4955210;29;20483;-62
2022/06/17 07:48:15;;;;;;;3.25;2.95;;;24.20;99.40;;;;;;4955040;29;20027;-63
2022/06/17 07:50:43;;;;;;;3.80;3.03;;;24.40;99.40;;;;;;4955194;29;20058;-62
2022/06/17 07:53:09;;;;;;;;;;;24.70;98.30;;;;;;4955744;29;20035;-63
2022/06/17 07:55:36;;;;;;;4.63;3.60;;;24.40;97.60;;;;;;4954854;29;19962;-63
2022/06/17 07:58:02;;;;;;;5.43;3.20;;;23.90;97.70;;;;;;4955546;29;20031;-63
2022/06/17 08:00:35;;;;;;;3.88;2.97;;;23.60;98.90;;;;;;4954937;29;20031;-63
2022/06/17 08:03:02;;;;;;;4.90;3.53;;;23.80;99.30;;;;;;4955670;29;20042;-63
2022/06/17 08:05:28;;;;;;;3.90;3.42;;;24.10;98.80;;;;;;4958512;28;20074;-63
2022/06/17 08:07:55;;;;;;;4.50;3.10;;;24.00;97.30;;;;;;4958801;29;20055;-63
2022/06/17 08:10:25;;;;;;;4.10;2.95;;;23.70;98.40;;;;;;4958594;29;20047;-67
2022/06/17 08:12:51;;;;;;;3.60;2.70;;;23.80;97.50;;;;;;4958730;29;20097;-68
2022/06/17 08:15:17;;;;;;;4.88;3.03;;;23.80;97.40;;;;;;4958490;29;20023;-69
2022/06/17 08:17:43;;;;;;;5.65;3.20;;;23.80;97.20;;;;;;4958591;29;20111;-69
2022/06/17 08:20:15;;;;;;;7.15;2.83;;;24.10;97.40;;;;;;4958628;29;20027;-69
2022/06/17 08:22:42;;;;;;;3.38;2.50;;;24.70;96.20;;;;;;4958406;29;20050;-69
2022/06/17 08:25:08;;;;;;;4.07;2.65;;;25.10;92.50;;;;;;4956554;29;20030;-68
2022/06/17 08:27:41;;;;;;;3.10;2.72;;;25.30;92.70;;;;;;4939282;29;20480;-69
2022/06/17 08:30:07;;;;;;;5.03;2.65;;;25.50;90.70;;;;;;4939237;29;20028;-69
2022/06/17 08:32:45;;;;;;;3.25;2.63;;;25.60;90.50;;;;;;4939138;29;20369;-78
2022/06/17 08:35:12;;;;;;;3.83;3.00;;;25.90;86.60;;;;;;4939197;29;20027;-70
2022/06/17 08:37:38;;;;;;;3.85;2.42;;;26.30;88.30;;;;;;4939077;29;20024;-69
2022/06/17 08:40:24;;;;;;;3.70;2.60;;;26.30;83.80;;;;;;4938973;29;20032;-71
2022/06/17 08:43:31;;;;;;;3.25;2.67;;;26.30;84.20;;;;;;4938925;29;20036;-69
2022/06/17 08:46:03;;;;;;;3.10;2.65;;;26.00;85.40;;;;;;4938913;29;20381;-70
2022/06/17 08:49:12;;;;;;;2.67;2.30;;;26.00;79.30;;;;;;4939120;29;20095;-70
2022/06/17 08:51:53;;;;;;;6.88;2.85;;;25.20;82.80;;;;;;4938941;29;20036;-75
2022/06/17 08:54:31;;;;;;;4.63;2.70;;;24.90;84.40;;;;;;4937466;29;20399;-77
2022/06/17 08:57:13;;;;;;;3.10;2.72;;;25.20;84.50;;;;;;4937875;29;20051;-82
2022/06/17 09:00:00;;;;;;;4.72;2.72;;;25.90;85.40;;;;;;4937758;29;20395;-77
2022/06/17 09:02:45;;;;;;;2.88;2.40;;;26.60;75.50;;;;;;4937803;29;20027;-78
2022/06/17 09:05:29;;;;;;;3.83;2.30;;;26.20;75.00;;;;;;4938657;29;20027;-81
2022/06/17 09:08:14;;;;;;;3.20;2.40;;;25.60;77.90;;;;;;4938537;29;20028;-74
2022/06/17 09:11:07;;;;;;;6.35;2.30;;;25.70;73.60;;;;;;4938529;29;20028;-77
2022/06/17 09:13:51;;;;;;;3.53;2.20;;;25.50;73.70;;;;;;4938548;29;20469;-79
2022/06/17 09:16:36;;;;;;;5.03;2.30;;;26.00;71.60;;;;;;4937811;29;20468;-64
2022/06/17 09:19:03;;;;;;;5.00;2.00;;;26.50;69.70;;;;;;4938427;29;20421;-61
2022/06/17 09:21:34;;;;;;;4.43;2.60;;;26.40;67.70;;;;;;4938210;29;20131;-61
2022/06/17 09:24:06;;;;;;;2.63;2.22;;;26.50;69.10;;;;;;4937982;29;20383;-60
2022/06/17 09:26:39;;;;;;;4.15;2.45;;;26.70;70.10;;;;;;4951011;29;20055;-60
2022/06/17 09:29:35;;;;;;;5.32;2.30;;;26.50;70.40;;;;;;4957503;29;20027;-62
2022/06/17 09:32:22;;;;;;;5.18;2.60;;;26.00;70.30;;;;;;4940214;29;20444;-61
2022/06/17 09:35:04;;;;;;;2.92;2.47;;;25.80;73.20;;;;;;4940282;29;20062;-62
2022/06/17 09:37:57;;;;;;;5.78;2.63;;;26.10;73.10;;;;;;4940002;29;20031;-61
2022/06/17 09:40:22;;;;;;;5.10;2.45;;;26.30;70.70;;;;;;4957232;29;20039;-61
2022/06/17 09:42:58;;;;;;;2.90;2.25;;;26.30;72.60;;;;;;4956862;29;20043;-61
2022/06/17 09:45:27;;;;;;;2.58;2.15;;;26.00;72.00;;;;;;4957308;29;20055;-61
2022/06/17 09:48:19;;;;;;;3.33;2.28;;;26.00;72.10;;;;;;4957030;29;20078;-61
2022/06/17 09:50:51;;;;;;;4.10;2.00;;;25.40;71.90;;;;;;4936266;29;20509;-62
2022/06/17 09:53:39;;;;;;;3.53;1.98;;;25.20;73.80;;;;;;4939907;29;20031;-63
2022/06/17 09:56:09;;;;;;;3.65;2.65;;;25.30;73.70;;;;;;4956953;29;20027;-62
2022/06/17 09:58:43;;;;;;;3.97;2.30;;;25.70;76.40;;;;;;4957091;29;20031;-63
2022/06/17 10:01:10;;;;;;;3.58;2.00;;;26.70;72.20;;;;;;4939186;29;20047;-61
2022/06/17 10:03:38;;;;;;;2.70;1.95;;;27.90;66.30;;;;;;4956674;29;20110;-62
2022/06/17 10:06:27;;;;;;;4.35;1.90;;;28.50;60.50;;;;;;4956803;29;20031;-62
2022/06/17 10:08:56;;;;;;;2.67;2.05;;;27.80;58.50;;;;;;4957237;29;20090;-61
2022/06/17 10:11:30;;;;;;;6.78;2.22;;;27.50;60.00;;;;;;4939278;29;20460;-61
2022/06/17 10:14:22;;;;;;;6.13;1.88;;;26.80;60.40;;;;;;4956530;29;20102;-61
2022/06/17 10:19:51;;;;;;;1.98;1.58;;;27.00;63.80;;;;;;4956085;29;20042;-61
2022/06/17 10:22:36;;;;;;;2.15;1.75;;;27.60;61.20;;;;;;4955988;29;20476;-60
2022/06/17 10:25:05;;;;;;;2.67;2.00;;;28.20;59.90;;;;;;4956084;29;20027;-61
2022/06/17 10:27:36;;;;;;;6.05;1.52;;;28.30;59.50;;;;;;4938018;29;20034;-61
2022/06/17 10:30:13;;;;;;;2.55;1.70;;;28.90;58.90;;;;;;4956456;29;20023;-60
2022/06/17 10:32:44;;;;;;;2.50;1.70;;;28.90;56.10;;;;;;4956314;29;20035;-62
2022/06/17 10:35:19;;;;;;;6.38;2.10;;;28.30;55.10;;;;;;4956893;29;20117;-61
2022/06/17 10:37:44;;;;;;;2.28;1.63;;;27.40;57.90;;;;;;4956147;29;20083;-62
2022/06/17 10:40:15;;;;;;;4.55;2.00;;;27.00;57.90;;;;;;4956091;29;20428;-60
2022/06/17 10:42:46;;;;;;;8.20;2.35;;;26.90;59.80;;;;;;4956224;29;20027;-60
2022/06/17 10:45:15;;;;;;;1.75;1.65;;;27.20;60.00;;;;;;4938713;29;20024;-60
2022/06/17 10:47:46;;;;;;;;;;;28.00;57.50;;;;;;4956407;29;20039;-60
2022/06/17 10:50:20;;;;;;;5.95;1.90;;;28.40;53.70;;;;;;4955907;29;19956;-62
2022/06/17 10:53:02;;;;;;;3.72;1.35;;;28.50;55.90;;;;;;4956195;29;20031;-62
2022/06/17 10:55:35;;;;;;;2.20;1.55;;;28.70;52.50;;;;;;4956054;29;20035;-65
2022/06/17 10:58:12;;;;;;;4.00;1.98;;;27.80;52.60;;;;;;4939503;29;20114;-61
2022/06/17 11:00:49;;;;;;;4.22;1.42;;;27.00;55.80;;;;;;4955881;29;20023;-61
2022/06/17 11:03:17;;;;;;;1.95;1.45;;;27.00;55.90;;;;;;4955707;29;20031;-60
2022/06/17 11:05:51;;;;;;;3.45;1.50;;;26.80;55.60;;;;;;4938482;29;20034;-61
2022/06/17 11:08:22;;;;;;;2.50;1.58;;;26.90;56.70;;;;;;4956034;29;20366;-61
2022/06/17 11:10:54;;;;;;;4.53;1.60;;;27.50;55.40;;;;;;4955903;29;20475;-61
2022/06/17 11:13:20;;;;;;;5.78;1.65;;;28.00;52.80;;;;;;4955705;29;20474;-61
2022/06/17 11:15:57;;;;;;;1.45;1.20;;;27.70;53.00;;;;;;4955673;29;20426;-60
2022/06/17 11:18:25;;;;;;;2.85;1.67;;;27.20;54.60;;;;;;4955633;29;20415;-61
2022/06/17 11:20:58;;;;;;;2.15;1.65;;;26.50;56.90;;;;;;4955818;29;20106;-61
2022/06/17 11:23:33;;;;;;;2.30;1.58;;;26.20;57.80;;;;;;4955741;29;20045;-60
2022/06/17 11:26:15;;;;;;;1.52;1.42;;;26.00;59.20;;;;;;4955052;29;20123;-60
2022/06/17 11:28:50;;;;;;;3.88;1.45;;;27.20;58.90;;;;;;4955536;29;20059;-62
2022/06/17 11:31:25;;;;;;;1.55;1.42;;;28.10;56.00;;;;;;4955573;29;20494;-60
2022/06/17 11:33:53;;;;;;;2.05;1.38;;;27.90;55.20;;;;;;4955364;29;20027;-60
2022/06/17 11:36:37;;;;;;;5.18;1.67;;;28.60;55.20;;;;;;4938213;29;20082;-60
2022/06/17 11:39:35;;;;;;;2.90;1.48;;;29.60;54.50;;;;;;4956797;28;20030;-62
2022/06/17 11:42:25;;;;;;;5.93;1.50;;;30.40;51.10;;;;;;4959217;29;20070;-60
2022/06/17 11:44:57;;;;;;;1.75;1.15;;;30.50;51.10;;;;;;4959173;29;20050;-62
2022/06/17 11:47:25;;;;;;;1.77;1.25;;;30.10;47.90;;;;;;4959153;29;20051;-62
2022/06/17 11:49:54;;;;;;;3.00;1.10;;;29.30;50.40;;;;;;4959662;29;20035;-64
2022/06/17 11:52:32;;;;;;;2.63;1.20;;;28.70;50.80;;;;;;4941940;29;20380;-61
2022/06/17 11:54:59;;;;;;;2.35;1.40;;;29.20;52.10;;;;;;4958670;29;20468;-61
2022/06/17 11:57:32;;;;;;;2.88;1.50;;;29.20;50.60;;;;;;4958615;29;20365;-62
2022/06/17 12:00:00;;;;;;;4.22;1.20;;;28.90;51.60;;;;;;4959241;29;20032;-61
2022/06/17 12:02:27;;;;;;;7.53;1.80;;;29.10;50.70;;;;;;4958670;29;20027;-69
2022/06/17 12:05:23;;;;;;;3.50;1.25;;;29.20;54.30;;;;;;4958418;29;20110;-66
2022/06/17 12:08:04;;;;;;;2.10;1.08;;;30.60;50.20;;;;;;4958862;29;20468;-67
2022/06/17 12:10:34;;;;;;;2.53;1.30;;;33.40;45.90;;;;;;4958744;29;20527;-68
2022/06/17 12:13:32;;;;;;;1.90;1.20;;;34.10;43.90;;;;;;4941357;29;20034;-61
2022/06/17 12:16:13;;;;;;;2.05;1.13;;;33.90;41.10;;;;;;4948089;29;20055;-63
2022/06/17 12:18:46;;;;;;;2.67;1.60;;;33.70;43.10;;;;;;4958601;29;20476;-61
2022/06/17 12:21:21;;;;;;;0.82;0.82;;;33.80;42.70;;;;;;4958436;29;20030;-63
2022/06/17 12:24:00;;;;;;;2.53;1.13;;;33.80;42.20;;;;;;4958314;29;20499;-62
2022/06/17 12:27:02;;;;;;;3.85;1.25;;;33.50;41.60;;;;;;4941033;29;20051;-65
2022/06/17 12:29:55;;;;;;;4.72;1.23;;;33.10;42.90;;;;;;4958409;29;20115;-64
2022/06/17 12:32:33;;;;;;;3.40;1.20;;;33.20;42.70;;;;;;4958483;29;20027;-62
2022/06/17 12:35:27;;;;;;;2.35;1.30;;;33.60;42.20;;;;;;4958025;29;20031;-62
2022/06/17 12:38:01;;;;;;;2.65;1.50;;;34.00;41.00;;;;;;4958396;29;20038;-64
2022/06/17 12:41:03;;;;;;;1.58;1.10;;;33.40;41.90;;;;;;4958427;29;20046;-62
2022/06/17 12:43:53;;;;;;;16.60;2.45;;;32.30;42.90;;;;;;4929932;29;20472;-63
2022/06/17 12:46:36;;;;;;;2.90;1.13;;;31.80;43.60;;;;;;4941125;29;20083;-62
2022/06/17 12:55:20;;;;;;;1.65;1.15;;;34.20;40.10;;;;;;4957791;29;20074;-70
2022/06/17 12:58:21;;;;;;;10.35;1.38;;;34.50;40.20;;;;;;4958143;29;20094;-70
2022/06/17 13:00:58;;;;;;;1.08;0.98;;;35.10;38.80;;;;;;4957650;29;20035;-65
2022/06/17 13:03:51;;;;;;;2.40;1.17;;;33.70;39.70;;;;;;4941081;29;20042;-72
2022/06/17 13:06:47;;;;;;;1.23;0.98;;;33.80;39.30;;;;;;4957823;29;20094;-71
2022/06/17 13:09:37;;;;;;;0.82;0.73;;;34.00;40.80;;;;;;4957889;29;20027;-72
2022/06/17 13:12:10;;;;;;;2.83;0.90;;;34.80;39.60;;;;;;4957781;29;20110;-71
2022/06/17 13:14:53;;;;;;;1.92;1.00;;;35.00;38.60;;;;;;4957722;29;20079;-70
2022/06/17 13:17:29;;;;;;;1.38;0.90;;;34.20;40.10;;;;;;4957870;29;20023;-68
2022/06/17 13:20:10;;;;;;;1.92;0.90;;;33.80;39.40;;;;;;4957854;29;20175;-69
2022/06/17 13:22:45;;;;;;;2.83;1.33;;;33.60;37.70;;;;;;4957465;29;20092;-68
2022/06/17 13:25:30;;;;;;;3.88;1.02;;;32.30;37.80;;;;;;4940349;29;20478;-70
2022/06/17 13:28:33;;;;;;;3.20;1.00;;;32.30;39.00;;;;;;4957871;29;20035;-69
2022/06/17 13:31:07;;;;;;;1.15;0.90;;;32.30;38.90;;;;;;4940576;29;20428;-70